Bookmark and Share
Track history (hours):
 

Chrisanthi

Last reported at 2014-Apr-16 19:12 UTC. Time now 2014-Apr-19 14:29 UTC.
Position N 36°40' E 026°23'.

Length 56 m; draft 3.9 m.

Type: Tanker. MMSI: 237009100.

NotesDate/timePositionNaut miles runAvg speedWind from/ knotsBaromVisibWave heightAir tempDewpointWater temp
2014-Apr-16 19:12N 36°40' E 026°23'6 1.0
2014-Apr-16 13:30N 36°36' E 026°18'1010.3
2014-Apr-16 12:33N 36°34' E 026°06'1110.7
2014-Apr-16 11:32N 36°29' E 025°54'1110.8
2014-Apr-16 10:33N 36°25' E 025°42'1110.6
2014-Apr-16 09:33N 36°20' E 025°30'7 6.9
2014-Apr-16 08:33N 36°22' E 025°22'3 3.4
2014-Apr-16 07:32N 36°23' E 025°26'0 0.0
2014-Apr-16 06:33N 36°23' E 025°26'0 0.0
2014-Apr-16 05:33N 36°23' E 025°26'0 0.0
2014-Apr-16 04:33N 36°23' E 025°26'5 5.4
2014-Apr-16 03:33N 36°28' E 025°22'1010.4
2014-Apr-16 02:33N 36°37' E 025°18'6 6.1
2014-Apr-16 01:33N 36°43' E 025°16'0 0.0
2014-Apr-16 00:33N 36°43' E 025°16'0 0.0
2014-Apr-15 23:33N 36°43' E 025°16'0 0.0
2014-Apr-15 22:33N 36°43' E 025°16'0 0.0
2014-Apr-15 21:33N 36°43' E 025°16'6 6.1
2014-Apr-15 20:33N 36°47' E 025°10'1010.3
2014-Apr-15 19:33N 36°54' E 025°00'8 7.5
2014-Apr-15 18:33N 37°01' E 025°01'11 1.0
2014-Apr-15 07:30N 37°08' E 025°11'8 8.8
2014-Apr-15 06:33N 37°07' E 025°21'1 0.7
2014-Apr-15 05:33N 37°06' E 025°22'0 0.2
2014-Apr-15 03:33N 37°06' E 025°22'0 0.0
2014-Apr-15 02:34N 37°06' E 025°22'18 8.8
2014-Apr-15 00:34N 37°12' E 025°43'1010.5
2014-Apr-14 23:34N 37°12' E 025°56'1110.5
2014-Apr-14 22:33N 37°10' E 026°09'1010.3
2014-Apr-14 21:33N 37°09' E 026°22'  
2014-Apr-11 17:27N 37°04' E 026°22'910.0
2014-Apr-11 16:31N 37°06' E 026°11'1010.0
2014-Apr-11 15:31N 37°08' E 025°59'1110.1
2014-Apr-11 14:27N 37°11' E 025°45'1310.4
2014-Apr-11 13:13N 37°14' E 025°30'710.1
2014-Apr-11 12:32N 37°15' E 025°21'1010.1
2014-Apr-11 11:33N 37°18' E 025°09'1010.3
2014-Apr-11 10:33N 37°20' E 024°57'1010.3
2014-Apr-11 09:33N 37°24' E 024°45'5210.3
2014-Apr-11 04:31N 37°40' E 023°43'1010.2
2014-Apr-11 03:33N 37°48' E 023°36'5 0.3
2014-Apr-10 13:31N 37°51' E 023°31'9 9.2
2014-Apr-10 12:33N 37°47' E 023°41'39 9.8
2014-Apr-10 08:33N 37°30' E 024°26'10 9.9
2014-Apr-10 07:31N 37°24' E 024°36'1010.3
2014-Apr-10 06:33N 37°18' E 024°46'1010.1
2014-Apr-10 05:33N 37°12' E 024°57'1010.0
2014-Apr-10 04:33N 37°06' E 025°07'5 0.3
2014-Apr-09 09:33N 37°09' E 025°12'8 8.6
2014-Apr-09 08:33N 37°06' E 025°22'0 0.1
2014-Apr-09 07:33N 37°06' E 025°22'0 0.3
2014-Apr-09 06:33N 37°06' E 025°22'3 2.7
2014-Apr-09 05:33N 37°05' E 025°19'10 9.7
2014-Apr-09 04:33N 36°56' E 025°24'10 9.8
2014-Apr-09 03:33N 36°56' E 025°36'0 0.3
2014-Apr-09 02:33N 36°55' E 025°36'0 0.0
2014-Apr-09 01:33N 36°55' E 025°36'0 0.0
2014-Apr-09 00:33N 36°55' E 025°36'0 0.0
2014-Apr-08 23:33N 36°55' E 025°36'0 0.0
2014-Apr-08 22:33N 36°55' E 025°36'0 0.0
2014-Apr-08 21:33N 36°55' E 025°36'0 0.0
2014-Apr-08 20:33N 36°55' E 025°36'0 0.3
2014-Apr-08 19:33N 36°56' E 025°36'0 0.0
2014-Apr-08 18:33N 36°56' E 025°36'0 0.0
2014-Apr-08 17:33N 36°56' E 025°36'7 7.0
2014-Apr-08 16:33N 36°53' E 025°28'10 9.8
2014-Apr-08 15:33N 36°48' E 025°17'5 5.0
2014-Apr-08 14:33N 36°43' E 025°16'0 0.0
2014-Apr-08 13:33N 36°43' E 025°16'8 7.6
2014-Apr-08 12:33N 36°36' E 025°18'10 9.8
2014-Apr-08 11:33N 36°27' E 025°23'4 4.3
2014-Apr-08 10:33N 36°23' E 025°26'0 0.0
2014-Apr-08 09:33N 36°23' E 025°26'0 0.0
2014-Apr-08 08:33N 36°23' E 025°26'0 0.0
2014-Apr-08 07:33N 36°23' E 025°26'0 0.0
2014-Apr-08 06:33N 36°23' E 025°26'5 5.2
2014-Apr-08 05:33N 36°27' E 025°22'9 9.0
2014-Apr-08 04:33N 36°32' E 025°32'1010.3
2014-Apr-08 03:33N 36°35' E 025°44'1110.6
2014-Apr-08 02:33N 36°38' E 025°56'1010.3
2014-Apr-08 01:33N 36°41' E 026°09'  

Dump ship's entire track history

sailing weather and tide predictions

Chrisanthi — SX7108 — position and weather